sensor_id;sensor_type;location;lat;lon;timestamp;P1;durP1;ratioP1;P2;durP2;ratioP2
2998;SDS011;1509;51.964;7.628;2023-04-15T00:00:48;9.03;;;6.10;;
2998;SDS011;1509;51.964;7.628;2023-04-15T00:03:15;7.87;;;6.33;;
2998;SDS011;1509;51.964;7.628;2023-04-15T00:05:41;10.30;;;7.03;;
2998;SDS011;1509;51.964;7.628;2023-04-15T00:08:07;9.33;;;5.90;;
2998;SDS011;1509;51.964;7.628;2023-04-15T00:10:32;10.40;;;6.40;;
2998;SDS011;1509;51.964;7.628;2023-04-15T00:12:58;10.93;;;6.50;;
2998;SDS011;1509;51.964;7.628;2023-04-15T00:15:24;9.47;;;6.60;;
2998;SDS011;1509;51.964;7.628;2023-04-15T00:17:51;7.57;;;5.50;;
2998;SDS011;1509;51.964;7.628;2023-04-15T00:20:16;9.70;;;6.63;;
2998;SDS011;1509;51.964;7.628;2023-04-15T00:22:42;8.23;;;6.67;;
2998;SDS011;1509;51.964;7.628;2023-04-15T00:25:08;11.40;;;8.40;;
2998;SDS011;1509;51.964;7.628;2023-04-15T00:27:33;15.23;;;6.80;;
2998;SDS011;1509;51.964;7.628;2023-04-15T00:29:59;8.93;;;6.30;;
2998;SDS011;1509;51.964;7.628;2023-04-15T00:32:25;10.77;;;8.47;;
2998;SDS011;1509;51.964;7.628;2023-04-15T00:34:50;12.63;;;8.10;;
2998;SDS011;1509;51.964;7.628;2023-04-15T00:37:16;11.10;;;7.20;;
2998;SDS011;1509;51.964;7.628;2023-04-15T00:39:42;9.77;;;6.97;;
2998;SDS011;1509;51.964;7.628;2023-04-15T00:42:08;9.93;;;7.77;;
2998;SDS011;1509;51.964;7.628;2023-04-15T00:44:34;9.70;;;7.30;;
2998;SDS011;1509;51.964;7.628;2023-04-15T00:47:00;10.80;;;7.70;;
2998;SDS011;1509;51.964;7.628;2023-04-15T00:49:26;9.73;;;7.90;;
2998;SDS011;1509;51.964;7.628;2023-04-15T00:51:53;9.17;;;6.77;;
2998;SDS011;1509;51.964;7.628;2023-04-15T00:54:19;9.97;;;7.70;;
2998;SDS011;1509;51.964;7.628;2023-04-15T00:56:45;8.70;;;7.10;;
2998;SDS011;1509;51.964;7.628;2023-04-15T00:59:11;10.90;;;8.20;;
2998;SDS011;1509;51.964;7.628;2023-04-15T01:01:37;9.53;;;7.00;;
2998;SDS011;1509;51.964;7.628;2023-04-15T01:04:03;10.03;;;7.47;;
2998;SDS011;1509;51.964;7.628;2023-04-15T01:06:29;10.73;;;7.70;;
2998;SDS011;1509;51.964;7.628;2023-04-15T01:08:56;9.40;;;7.60;;
2998;SDS011;1509;51.964;7.628;2023-04-15T01:11:23;13.00;;;7.40;;
2998;SDS011;1509;51.964;7.628;2023-04-15T01:13:49;10.80;;;8.10;;
2998;SDS011;1509;51.964;7.628;2023-04-15T01:16:16;9.60;;;7.50;;
2998;SDS011;1509;51.964;7.628;2023-04-15T01:18:42;11.10;;;7.87;;
2998;SDS011;1509;51.964;7.628;2023-04-15T01:21:08;12.87;;;8.03;;
2998;SDS011;1509;51.964;7.628;2023-04-15T01:23:34;8.00;;;6.93;;
2998;SDS011;1509;51.964;7.628;2023-04-15T01:26:02;10.27;;;7.87;;
2998;SDS011;1509;51.964;7.628;2023-04-15T01:28:29;10.17;;;7.30;;
2998;SDS011;1509;51.964;7.628;2023-04-15T01:31:08;11.00;;;7.47;;
2998;SDS011;1509;51.964;7.628;2023-04-15T01:33:39;11.30;;;7.70;;
2998;SDS011;1509;51.964;7.628;2023-04-15T01:36:06;8.80;;;7.47;;
2998;SDS011;1509;51.964;7.628;2023-04-15T01:38:34;8.83;;;7.90;;
2998;SDS011;1509;51.964;7.628;2023-04-15T01:41:00;11.90;;;8.37;;
2998;SDS011;1509;51.964;7.628;2023-04-15T01:43:26;9.30;;;7.40;;
2998;SDS011;1509;51.964;7.628;2023-04-15T01:45:52;11.03;;;8.13;;
2998;SDS011;1509;51.964;7.628;2023-04-15T01:48:18;12.47;;;7.87;;
2998;SDS011;1509;51.964;7.628;2023-04-15T01:50:43;11.17;;;9.03;;
2998;SDS011;1509;51.964;7.628;2023-04-15T01:53:09;10.67;;;7.97;;
2998;SDS011;1509;51.964;7.628;2023-04-15T01:55:35;9.63;;;7.70;;
2998;SDS011;1509;51.964;7.628;2023-04-15T01:58:01;11.10;;;8.47;;
2998;SDS011;1509;51.964;7.628;2023-04-15T02:00:27;14.50;;;9.43;;
2998;SDS011;1509;51.964;7.628;2023-04-15T02:02:53;13.80;;;8.40;;
2998;SDS011;1509;51.964;7.628;2023-04-15T02:05:19;9.87;;;7.50;;
2998;SDS011;1509;51.964;7.628;2023-04-15T02:07:45;12.80;;;9.37;;
2998;SDS011;1509;51.964;7.628;2023-04-15T02:10:10;11.07;;;8.37;;
2998;SDS011;1509;51.964;7.628;2023-04-15T02:12:37;11.30;;;7.70;;
2998;SDS011;1509;51.964;7.628;2023-04-15T02:15:03;12.83;;;8.50;;
2998;SDS011;1509;51.964;7.628;2023-04-15T02:17:29;13.20;;;7.80;;
2998;SDS011;1509;51.964;7.628;2023-04-15T02:19:58;11.50;;;8.20;;
2998;SDS011;1509;51.964;7.628;2023-04-15T02:22:24;12.47;;;9.30;;
2998;SDS011;1509;51.964;7.628;2023-04-15T02:24:50;9.63;;;7.77;;
2998;SDS011;1509;51.964;7.628;2023-04-15T02:27:16;11.10;;;8.40;;
2998;SDS011;1509;51.964;7.628;2023-04-15T02:29:43;9.03;;;8.00;;
2998;SDS011;1509;51.964;7.628;2023-04-15T02:32:10;9.53;;;8.50;;
2998;SDS011;1509;51.964;7.628;2023-04-15T02:34:36;10.90;;;9.63;;
2998;SDS011;1509;51.964;7.628;2023-04-15T02:37:05;11.57;;;8.40;;
2998;SDS011;1509;51.964;7.628;2023-04-15T02:39:34;12.67;;;8.90;;
2998;SDS011;1509;51.964;7.628;2023-04-15T02:41:59;11.67;;;9.23;;
2998;SDS011;1509;51.964;7.628;2023-04-15T02:44:25;10.23;;;8.27;;
2998;SDS011;1509;51.964;7.628;2023-04-15T02:46:52;11.77;;;8.30;;
2998;SDS011;1509;51.964;7.628;2023-04-15T02:49:21;11.93;;;8.37;;
2998;SDS011;1509;51.964;7.628;2023-04-15T02:51:47;12.47;;;7.93;;
2998;SDS011;1509;51.964;7.628;2023-04-15T02:54:20;9.47;;;7.87;;
2998;SDS011;1509;51.964;7.628;2023-04-15T02:56:49;13.10;;;8.40;;
2998;SDS011;1509;51.964;7.628;2023-04-15T02:59:16;11.30;;;8.20;;
2998;SDS011;1509;51.964;7.628;2023-04-15T03:01:41;10.30;;;7.73;;
2998;SDS011;1509;51.964;7.628;2023-04-15T03:04:07;13.67;;;9.00;;
2998;SDS011;1509;51.964;7.628;2023-04-15T03:06:35;13.17;;;9.00;;
2998;SDS011;1509;51.964;7.628;2023-04-15T03:09:01;13.90;;;8.93;;
2998;SDS011;1509;51.964;7.628;2023-04-15T03:11:30;9.40;;;7.80;;
2998;SDS011;1509;51.964;7.628;2023-04-15T03:13:56;14.33;;;9.33;;
2998;SDS011;1509;51.964;7.628;2023-04-15T03:16:23;11.30;;;8.67;;
2998;SDS011;1509;51.964;7.628;2023-04-15T03:18:49;12.50;;;8.17;;
2998;SDS011;1509;51.964;7.628;2023-04-15T03:21:14;12.10;;;8.30;;
2998;SDS011;1509;51.964;7.628;2023-04-15T03:23:40;12.73;;;8.30;;
2998;SDS011;1509;51.964;7.628;2023-04-15T03:26:06;13.07;;;8.67;;
2998;SDS011;1509;51.964;7.628;2023-04-15T03:28:31;12.90;;;8.60;;
2998;SDS011;1509;51.964;7.628;2023-04-15T03:30:57;14.70;;;8.73;;
2998;SDS011;1509;51.964;7.628;2023-04-15T03:33:23;11.87;;;8.33;;
2998;SDS011;1509;51.964;7.628;2023-04-15T03:35:49;14.77;;;9.57;;
2998;SDS011;1509;51.964;7.628;2023-04-15T03:38:15;13.27;;;8.97;;
2998;SDS011;1509;51.964;7.628;2023-04-15T03:40:42;14.50;;;8.93;;
2998;SDS011;1509;51.964;7.628;2023-04-15T03:43:07;12.10;;;8.93;;
2998;SDS011;1509;51.964;7.628;2023-04-15T03:45:33;15.77;;;9.07;;
2998;SDS011;1509;51.964;7.628;2023-04-15T03:47:59;13.17;;;9.10;;
2998;SDS011;1509;51.964;7.628;2023-04-15T03:50:25;15.60;;;9.30;;
2998;SDS011;1509;51.964;7.628;2023-04-15T03:52:50;14.90;;;10.37;;
2998;SDS011;1509;51.964;7.628;2023-04-15T03:55:16;16.13;;;10.27;;
2998;SDS011;1509;51.964;7.628;2023-04-15T03:57:41;12.63;;;7.87;;
2998;SDS011;1509;51.964;7.628;2023-04-15T04:00:08;14.53;;;8.90;;
2998;SDS011;1509;51.964;7.628;2023-04-15T04:02:34;17.83;;;9.43;;
2998;SDS011;1509;51.964;7.628;2023-04-15T04:05:00;12.57;;;8.67;;
2998;SDS011;1509;51.964;7.628;2023-04-15T04:07:26;12.63;;;9.40;;
2998;SDS011;1509;51.964;7.628;2023-04-15T04:09:51;14.03;;;9.90;;
2998;SDS011;1509;51.964;7.628;2023-04-15T04:12:17;10.50;;;8.93;;
2998;SDS011;1509;51.964;7.628;2023-04-15T04:14:43;15.10;;;9.00;;
2998;SDS011;1509;51.964;7.628;2023-04-15T04:17:08;11.20;;;8.47;;
2998;SDS011;1509;51.964;7.628;2023-04-15T04:19:34;14.27;;;9.90;;
2998;SDS011;1509;51.964;7.628;2023-04-15T04:22:00;17.23;;;10.13;;
2998;SDS011;1509;51.964;7.628;2023-04-15T04:24:26;11.80;;;9.30;;
2998;SDS011;1509;51.964;7.628;2023-04-15T04:26:51;14.93;;;8.43;;
2998;SDS011;1509;51.964;7.628;2023-04-15T04:29:17;15.13;;;9.77;;
2998;SDS011;1509;51.964;7.628;2023-04-15T04:31:42;13.50;;;9.43;;
2998;SDS011;1509;51.964;7.628;2023-04-15T04:34:08;13.60;;;9.60;;
2998;SDS011;1509;51.964;7.628;2023-04-15T04:36:33;15.40;;;9.37;;
2998;SDS011;1509;51.964;7.628;2023-04-15T04:39:14;12.73;;;9.10;;
2998;SDS011;1509;51.964;7.628;2023-04-15T04:41:39;15.93;;;10.50;;
2998;SDS011;1509;51.964;7.628;2023-04-15T04:44:05;12.80;;;9.40;;
2998;SDS011;1509;51.964;7.628;2023-04-15T04:46:31;12.47;;;9.47;;
2998;SDS011;1509;51.964;7.628;2023-04-15T04:48:57;12.70;;;9.63;;
2998;SDS011;1509;51.964;7.628;2023-04-15T04:51:22;14.50;;;9.50;;
2998;SDS011;1509;51.964;7.628;2023-04-15T04:53:48;13.43;;;10.00;;
2998;SDS011;1509;51.964;7.628;2023-04-15T04:56:14;13.70;;;10.83;;
2998;SDS011;1509;51.964;7.628;2023-04-15T04:58:40;16.97;;;10.23;;
2998;SDS011;1509;51.964;7.628;2023-04-15T05:01:05;14.03;;;9.90;;
2998;SDS011;1509;51.964;7.628;2023-04-15T05:03:31;12.10;;;8.90;;
2998;SDS011;1509;51.964;7.628;2023-04-15T05:05:57;14.87;;;9.77;;
2998;SDS011;1509;51.964;7.628;2023-04-15T05:08:23;12.50;;;9.17;;
2998;SDS011;1509;51.964;7.628;2023-04-15T05:10:48;14.30;;;10.13;;
2998;SDS011;1509;51.964;7.628;2023-04-15T05:13:14;13.90;;;10.00;;
2998;SDS011;1509;51.964;7.628;2023-04-15T05:15:39;13.30;;;10.20;;
2998;SDS011;1509;51.964;7.628;2023-04-15T05:18:07;14.20;;;11.17;;
2998;SDS011;1509;51.964;7.628;2023-04-15T05:20:32;13.40;;;9.23;;
2998;SDS011;1509;51.964;7.628;2023-04-15T05:22:58;18.67;;;10.87;;
2998;SDS011;1509;51.964;7.628;2023-04-15T05:25:24;11.87;;;10.13;;
2998;SDS011;1509;51.964;7.628;2023-04-15T05:27:52;15.90;;;10.10;;
2998;SDS011;1509;51.964;7.628;2023-04-15T05:30:18;12.90;;;9.63;;
2998;SDS011;1509;51.964;7.628;2023-04-15T05:32:43;16.63;;;10.40;;
2998;SDS011;1509;51.964;7.628;2023-04-15T05:35:09;18.33;;;10.40;;
2998;SDS011;1509;51.964;7.628;2023-04-15T05:37:35;12.93;;;9.53;;
2998;SDS011;1509;51.964;7.628;2023-04-15T05:40:01;15.73;;;10.13;;
2998;SDS011;1509;51.964;7.628;2023-04-15T05:42:28;13.20;;;9.70;;
2998;SDS011;1509;51.964;7.628;2023-04-15T05:44:54;16.20;;;9.67;;
2998;SDS011;1509;51.964;7.628;2023-04-15T05:47:20;13.87;;;10.30;;
2998;SDS011;1509;51.964;7.628;2023-04-15T05:49:45;13.77;;;10.10;;
2998;SDS011;1509;51.964;7.628;2023-04-15T05:52:11;14.37;;;10.80;;
2998;SDS011;1509;51.964;7.628;2023-04-15T05:54:36;13.17;;;9.97;;
2998;SDS011;1509;51.964;7.628;2023-04-15T05:57:02;14.97;;;10.37;;
2998;SDS011;1509;51.964;7.628;2023-04-15T05:59:28;14.80;;;10.90;;
2998;SDS011;1509;51.964;7.628;2023-04-15T06:01:53;14.13;;;10.37;;
2998;SDS011;1509;51.964;7.628;2023-04-15T06:04:19;17.93;;;12.67;;
2998;SDS011;1509;51.964;7.628;2023-04-15T06:06:45;16.03;;;11.20;;
2998;SDS011;1509;51.964;7.628;2023-04-15T06:09:11;19.20;;;10.70;;
2998;SDS011;1509;51.964;7.628;2023-04-15T06:11:36;20.90;;;11.37;;
2998;SDS011;1509;51.964;7.628;2023-04-15T06:14:02;15.97;;;10.80;;
2998;SDS011;1509;51.964;7.628;2023-04-15T06:16:28;16.20;;;10.60;;
2998;SDS011;1509;51.964;7.628;2023-04-15T06:18:53;14.60;;;10.57;;
2998;SDS011;1509;51.964;7.628;2023-04-15T06:21:19;15.83;;;10.57;;
2998;SDS011;1509;51.964;7.628;2023-04-15T06:23:44;12.63;;;10.10;;
2998;SDS011;1509;51.964;7.628;2023-04-15T06:26:10;13.97;;;9.57;;
2998;SDS011;1509;51.964;7.628;2023-04-15T06:28:36;16.90;;;10.60;;
2998;SDS011;1509;51.964;7.628;2023-04-15T06:31:01;15.60;;;9.90;;
2998;SDS011;1509;51.964;7.628;2023-04-15T06:33:30;14.63;;;9.77;;
2998;SDS011;1509;51.964;7.628;2023-04-15T06:35:56;20.17;;;11.00;;
2998;SDS011;1509;51.964;7.628;2023-04-15T06:38:21;15.40;;;10.60;;
2998;SDS011;1509;51.964;7.628;2023-04-15T06:40:47;15.00;;;10.70;;
2998;SDS011;1509;51.964;7.628;2023-04-15T06:43:13;14.60;;;9.33;;
2998;SDS011;1509;51.964;7.628;2023-04-15T06:45:39;15.20;;;10.43;;
2998;SDS011;1509;51.964;7.628;2023-04-15T06:48:05;15.73;;;10.47;;
2998;SDS011;1509;51.964;7.628;2023-04-15T06:50:32;15.60;;;10.80;;
2998;SDS011;1509;51.964;7.628;2023-04-15T06:52:59;18.70;;;10.77;;
2998;SDS011;1509;51.964;7.628;2023-04-15T06:55:25;17.10;;;11.10;;
2998;SDS011;1509;51.964;7.628;2023-04-15T06:57:51;15.80;;;10.07;;
2998;SDS011;1509;51.964;7.628;2023-04-15T07:00:17;18.23;;;10.97;;
2998;SDS011;1509;51.964;7.628;2023-04-15T07:02:43;15.63;;;10.73;;
2998;SDS011;1509;51.964;7.628;2023-04-15T07:05:09;13.50;;;10.27;;
2998;SDS011;1509;51.964;7.628;2023-04-15T07:07:35;14.07;;;10.20;;
2998;SDS011;1509;51.964;7.628;2023-04-15T07:10:03;14.80;;;10.53;;
2998;SDS011;1509;51.964;7.628;2023-04-15T07:12:29;20.07;;;11.40;;
2998;SDS011;1509;51.964;7.628;2023-04-15T07:14:55;17.60;;;10.20;;
2998;SDS011;1509;51.964;7.628;2023-04-15T07:17:23;12.97;;;9.50;;
2998;SDS011;1509;51.964;7.628;2023-04-15T07:19:48;15.90;;;9.90;;
2998;SDS011;1509;51.964;7.628;2023-04-15T07:22:14;17.07;;;10.73;;
2998;SDS011;1509;51.964;7.628;2023-04-15T07:24:42;15.10;;;10.50;;
2998;SDS011;1509;51.964;7.628;2023-04-15T07:27:08;15.47;;;9.67;;
2998;SDS011;1509;51.964;7.628;2023-04-15T07:29:33;17.63;;;10.43;;
2998;SDS011;1509;51.964;7.628;2023-04-15T07:31:59;14.37;;;10.60;;
2998;SDS011;1509;51.964;7.628;2023-04-15T07:34:25;14.20;;;11.07;;
2998;SDS011;1509;51.964;7.628;2023-04-15T07:36:50;16.77;;;10.97;;
2998;SDS011;1509;51.964;7.628;2023-04-15T07:39:16;16.70;;;10.17;;
2998;SDS011;1509;51.964;7.628;2023-04-15T07:41:43;17.80;;;10.00;;
2998;SDS011;1509;51.964;7.628;2023-04-15T07:44:08;17.43;;;11.17;;
2998;SDS011;1509;51.964;7.628;2023-04-15T07:46:34;15.47;;;10.70;;
2998;SDS011;1509;51.964;7.628;2023-04-15T07:49:00;15.90;;;10.47;;
2998;SDS011;1509;51.964;7.628;2023-04-15T07:51:25;16.33;;;11.10;;
2998;SDS011;1509;51.964;7.628;2023-04-15T07:53:51;19.87;;;11.83;;
2998;SDS011;1509;51.964;7.628;2023-04-15T07:56:20;13.97;;;9.13;;
2998;SDS011;1509;51.964;7.628;2023-04-15T07:58:46;16.33;;;10.67;;
2998;SDS011;1509;51.964;7.628;2023-04-15T08:01:14;15.80;;;9.40;;
2998;SDS011;1509;51.964;7.628;2023-04-15T08:03:40;12.93;;;8.63;;
2998;SDS011;1509;51.964;7.628;2023-04-15T08:06:06;15.93;;;9.60;;
2998;SDS011;1509;51.964;7.628;2023-04-15T08:08:32;14.13;;;8.37;;
2998;SDS011;1509;51.964;7.628;2023-04-15T08:10:58;14.73;;;8.93;;
2998;SDS011;1509;51.964;7.628;2023-04-15T08:13:24;14.53;;;9.33;;
2998;SDS011;1509;51.964;7.628;2023-04-15T08:15:55;15.43;;;9.67;;
2998;SDS011;1509;51.964;7.628;2023-04-15T08:18:40;13.83;;;9.93;;
2998;SDS011;1509;51.964;7.628;2023-04-15T08:21:05;13.57;;;8.80;;
2998;SDS011;1509;51.964;7.628;2023-04-15T08:23:31;14.20;;;9.30;;
2998;SDS011;1509;51.964;7.628;2023-04-15T08:25:57;14.80;;;9.23;;
2998;SDS011;1509;51.964;7.628;2023-04-15T08:28:23;14.17;;;8.90;;
2998;SDS011;1509;51.964;7.628;2023-04-15T08:30:48;12.43;;;8.60;;
2998;SDS011;1509;51.964;7.628;2023-04-15T08:33:14;12.20;;;8.63;;
2998;SDS011;1509;51.964;7.628;2023-04-15T08:35:40;15.03;;;9.40;;
2998;SDS011;1509;51.964;7.628;2023-04-15T08:38:06;12.30;;;8.67;;
2998;SDS011;1509;51.964;7.628;2023-04-15T08:40:35;14.83;;;9.20;;
2998;SDS011;1509;51.964;7.628;2023-04-15T08:43:06;17.07;;;10.83;;
2998;SDS011;1509;51.964;7.628;2023-04-15T08:45:35;12.77;;;8.47;;
2998;SDS011;1509;51.964;7.628;2023-04-15T08:48:03;14.73;;;9.37;;
2998;SDS011;1509;51.964;7.628;2023-04-15T08:50:31;11.60;;;8.50;;
2998;SDS011;1509;51.964;7.628;2023-04-15T08:52:59;14.10;;;8.33;;
2998;SDS011;1509;51.964;7.628;2023-04-15T08:55:28;14.97;;;8.67;;
2998;SDS011;1509;51.964;7.628;2023-04-15T08:57:58;11.00;;;7.53;;
2998;SDS011;1509;51.964;7.628;2023-04-15T09:00:28;13.80;;;8.23;;
2998;SDS011;1509;51.964;7.628;2023-04-15T09:02:55;14.20;;;8.13;;
2998;SDS011;1509;51.964;7.628;2023-04-15T09:05:21;12.90;;;7.70;;
2998;SDS011;1509;51.964;7.628;2023-04-15T09:07:47;13.57;;;8.60;;
2998;SDS011;1509;51.964;7.628;2023-04-15T09:10:14;11.00;;;7.43;;
2998;SDS011;1509;51.964;7.628;2023-04-15T09:12:40;12.60;;;7.47;;
2998;SDS011;1509;51.964;7.628;2023-04-15T09:15:05;14.07;;;7.77;;
2998;SDS011;1509;51.964;7.628;2023-04-15T09:17:36;10.17;;;7.37;;
2998;SDS011;1509;51.964;7.628;2023-04-15T09:20:09;11.93;;;8.50;;
2998;SDS011;1509;51.964;7.628;2023-04-15T09:22:39;11.50;;;7.83;;
2998;SDS011;1509;51.964;7.628;2023-04-15T09:25:26;12.33;;;7.33;;
2998;SDS011;1509;51.964;7.628;2023-04-15T09:27:54;13.60;;;7.40;;
2998;SDS011;1509;51.964;7.628;2023-04-15T09:30:21;11.37;;;8.77;;
2998;SDS011;1509;51.964;7.628;2023-04-15T09:32:51;10.53;;;6.80;;
2998;SDS011;1509;51.964;7.628;2023-04-15T09:35:24;10.57;;;8.00;;
2998;SDS011;1509;51.964;7.628;2023-04-15T09:37:51;10.90;;;6.87;;
2998;SDS011;1509;51.964;7.628;2023-04-15T09:40:39;11.57;;;7.63;;
2998;SDS011;1509;51.964;7.628;2023-04-15T09:43:05;12.30;;;7.63;;
2998;SDS011;1509;51.964;7.628;2023-04-15T09:45:32;9.50;;;6.80;;
2998;SDS011;1509;51.964;7.628;2023-04-15T09:48:13;13.90;;;7.90;;
2998;SDS011;1509;51.964;7.628;2023-04-15T09:50:41;13.57;;;7.40;;
2998;SDS011;1509;51.964;7.628;2023-04-15T09:53:14;12.30;;;7.40;;
2998;SDS011;1509;51.964;7.628;2023-04-15T09:55:48;12.17;;;7.83;;
2998;SDS011;1509;51.964;7.628;2023-04-15T09:58:22;10.70;;;7.30;;
2998;SDS011;1509;51.964;7.628;2023-04-15T10:00:50;9.37;;;6.83;;
2998;SDS011;1509;51.964;7.628;2023-04-15T10:03:27;10.20;;;7.37;;
2998;SDS011;1509;51.964;7.628;2023-04-15T10:06:00;12.80;;;8.30;;
2998;SDS011;1509;51.964;7.628;2023-04-15T10:08:31;12.10;;;7.00;;
2998;SDS011;1509;51.964;7.628;2023-04-15T10:11:01;10.43;;;7.53;;
2998;SDS011;1509;51.964;7.628;2023-04-15T10:13:28;12.90;;;6.83;;
2998;SDS011;1509;51.964;7.628;2023-04-15T10:16:15;11.43;;;8.60;;
2998;SDS011;1509;51.964;7.628;2023-04-15T10:18:46;15.80;;;7.60;;
2998;SDS011;1509;51.964;7.628;2023-04-15T10:21:15;8.70;;;6.50;;
2998;SDS011;1509;51.964;7.628;2023-04-15T10:23:45;14.00;;;7.73;;
2998;SDS011;1509;51.964;7.628;2023-04-15T10:26:12;10.97;;;6.87;;
2998;SDS011;1509;51.964;7.628;2023-04-15T10:28:41;12.23;;;6.60;;
2998;SDS011;1509;51.964;7.628;2023-04-15T10:31:07;12.27;;;6.80;;
2998;SDS011;1509;51.964;7.628;2023-04-15T10:33:35;10.63;;;7.03;;
2998;SDS011;1509;51.964;7.628;2023-04-15T10:36:02;11.00;;;6.50;;
2998;SDS011;1509;51.964;7.628;2023-04-15T10:43:54;9.17;;;6.23;;
2998;SDS011;1509;51.964;7.628;2023-04-15T10:46:40;8.10;;;5.70;;
2998;SDS011;1509;51.964;7.628;2023-04-15T10:49:08;10.60;;;6.80;;
2998;SDS011;1509;51.964;7.628;2023-04-15T10:51:39;9.10;;;6.50;;
2998;SDS011;1509;51.964;7.628;2023-04-15T10:54:13;10.93;;;6.20;;
2998;SDS011;1509;51.964;7.628;2023-04-15T10:56:45;7.80;;;6.00;;
2998;SDS011;1509;51.964;7.628;2023-04-15T10:59:16;8.20;;;6.53;;
2998;SDS011;1509;51.964;7.628;2023-04-15T11:07:15;6.60;;;5.30;;
2998;SDS011;1509;51.964;7.628;2023-04-15T11:09:57;8.30;;;4.60;;
2998;SDS011;1509;51.964;7.628;2023-04-15T11:12:23;7.77;;;5.40;;
2998;SDS011;1509;51.964;7.628;2023-04-15T11:15:20;8.20;;;5.63;;
2998;SDS011;1509;51.964;7.628;2023-04-15T11:17:48;6.53;;;4.93;;
2998;SDS011;1509;51.964;7.628;2023-04-15T11:20:15;7.40;;;5.17;;
2998;SDS011;1509;51.964;7.628;2023-04-15T11:22:48;8.73;;;5.20;;
2998;SDS011;1509;51.964;7.628;2023-04-15T11:25:30;7.33;;;4.90;;
2998;SDS011;1509;51.964;7.628;2023-04-15T11:27:57;6.23;;;4.50;;
2998;SDS011;1509;51.964;7.628;2023-04-15T11:30:25;8.07;;;5.80;;
2998;SDS011;1509;51.964;7.628;2023-04-15T11:32:57;6.50;;;4.63;;
2998;SDS011;1509;51.964;7.628;2023-04-15T11:35:30;6.07;;;5.10;;
2998;SDS011;1509;51.964;7.628;2023-04-15T11:37:56;5.87;;;4.27;;
2998;SDS011;1509;51.964;7.628;2023-04-15T11:40:26;6.60;;;4.60;;
2998;SDS011;1509;51.964;7.628;2023-04-15T11:48:17;4.57;;;3.50;;
2998;SDS011;1509;51.964;7.628;2023-04-15T11:50:43;5.83;;;4.30;;
2998;SDS011;1509;51.964;7.628;2023-04-15T11:53:10;7.30;;;4.10;;
2998;SDS011;1509;51.964;7.628;2023-04-15T11:58:16;6.73;;;3.53;;
2998;SDS011;1509;51.964;7.628;2023-04-15T12:00:53;7.50;;;4.57;;
2998;SDS011;1509;51.964;7.628;2023-04-15T12:11:32;5.67;;;4.07;;
2998;SDS011;1509;51.964;7.628;2023-04-15T12:16:35;5.53;;;4.20;;
2998;SDS011;1509;51.964;7.628;2023-04-15T12:19:09;4.53;;;3.60;;
2998;SDS011;1509;51.964;7.628;2023-04-15T12:21:37;5.60;;;4.07;;
2998;SDS011;1509;51.964;7.628;2023-04-15T12:24:05;4.40;;;3.37;;
2998;SDS011;1509;51.964;7.628;2023-04-15T12:26:35;4.63;;;3.80;;
2998;SDS011;1509;51.964;7.628;2023-04-15T12:29:07;5.63;;;4.50;;
2998;SDS011;1509;51.964;7.628;2023-04-15T12:31:33;6.37;;;4.30;;
2998;SDS011;1509;51.964;7.628;2023-04-15T12:34:01;4.53;;;3.43;;
2998;SDS011;1509;51.964;7.628;2023-04-15T12:36:27;5.73;;;4.23;;
2998;SDS011;1509;51.964;7.628;2023-04-15T12:38:55;5.27;;;3.83;;
2998;SDS011;1509;51.964;7.628;2023-04-15T12:41:21;4.73;;;3.70;;
2998;SDS011;1509;51.964;7.628;2023-04-15T12:43:48;4.20;;;3.80;;
2998;SDS011;1509;51.964;7.628;2023-04-15T12:46:14;5.57;;;3.77;;
2998;SDS011;1509;51.964;7.628;2023-04-15T12:48:40;5.00;;;4.17;;
2998;SDS011;1509;51.964;7.628;2023-04-15T12:51:05;5.50;;;4.20;;
2998;SDS011;1509;51.964;7.628;2023-04-15T12:53:31;4.30;;;3.90;;
2998;SDS011;1509;51.964;7.628;2023-04-15T12:55:57;6.00;;;3.93;;
2998;SDS011;1509;51.964;7.628;2023-04-15T12:58:22;5.33;;;3.60;;
2998;SDS011;1509;51.964;7.628;2023-04-15T13:00:48;5.50;;;4.70;;
2998;SDS011;1509;51.964;7.628;2023-04-15T13:03:14;6.67;;;3.03;;
2998;SDS011;1509;51.964;7.628;2023-04-15T13:05:40;5.10;;;4.23;;
2998;SDS011;1509;51.964;7.628;2023-04-15T13:08:06;5.70;;;4.40;;
2998;SDS011;1509;51.964;7.628;2023-04-15T13:10:32;4.70;;;4.20;;
2998;SDS011;1509;51.964;7.628;2023-04-15T13:13:00;4.20;;;3.50;;
2998;SDS011;1509;51.964;7.628;2023-04-15T13:15:27;6.10;;;4.57;;
2998;SDS011;1509;51.964;7.628;2023-04-15T13:17:52;5.30;;;4.63;;
2998;SDS011;1509;51.964;7.628;2023-04-15T13:20:18;4.80;;;3.33;;
2998;SDS011;1509;51.964;7.628;2023-04-15T13:22:44;5.03;;;3.57;;
2998;SDS011;1509;51.964;7.628;2023-04-15T13:25:10;4.50;;;3.50;;
2998;SDS011;1509;51.964;7.628;2023-04-15T13:27:35;4.30;;;3.87;;
2998;SDS011;1509;51.964;7.628;2023-04-15T13:30:01;5.40;;;3.73;;
2998;SDS011;1509;51.964;7.628;2023-04-15T13:32:27;5.33;;;4.03;;
2998;SDS011;1509;51.964;7.628;2023-04-15T13:34:53;6.03;;;3.90;;
2998;SDS011;1509;51.964;7.628;2023-04-15T13:37:21;5.33;;;4.37;;
2998;SDS011;1509;51.964;7.628;2023-04-15T13:39:50;7.33;;;4.23;;
2998;SDS011;1509;51.964;7.628;2023-04-15T13:42:16;6.00;;;4.10;;
2998;SDS011;1509;51.964;7.628;2023-04-15T13:44:41;6.10;;;4.33;;
2998;SDS011;1509;51.964;7.628;2023-04-15T13:47:07;4.17;;;3.77;;
2998;SDS011;1509;51.964;7.628;2023-04-15T13:49:32;6.20;;;3.90;;
2998;SDS011;1509;51.964;7.628;2023-04-15T13:52:01;5.80;;;4.50;;
2998;SDS011;1509;51.964;7.628;2023-04-15T13:54:27;5.17;;;3.67;;
2998;SDS011;1509;51.964;7.628;2023-04-15T13:56:53;5.33;;;3.80;;
2998;SDS011;1509;51.964;7.628;2023-04-15T13:59:20;5.13;;;4.10;;
2998;SDS011;1509;51.964;7.628;2023-04-15T14:01:46;5.63;;;4.43;;
2998;SDS011;1509;51.964;7.628;2023-04-15T14:04:12;6.17;;;4.03;;
2998;SDS011;1509;51.964;7.628;2023-04-15T14:06:37;5.87;;;4.77;;
2998;SDS011;1509;51.964;7.628;2023-04-15T14:09:03;9.23;;;4.77;;
2998;SDS011;1509;51.964;7.628;2023-04-15T14:11:28;6.27;;;4.80;;
2998;SDS011;1509;51.964;7.628;2023-04-15T14:13:54;6.17;;;5.20;;
2998;SDS011;1509;51.964;7.628;2023-04-15T14:16:20;8.13;;;5.10;;
2998;SDS011;1509;51.964;7.628;2023-04-15T14:18:45;7.27;;;5.33;;
2998;SDS011;1509;51.964;7.628;2023-04-15T14:21:11;6.23;;;5.40;;
2998;SDS011;1509;51.964;7.628;2023-04-15T14:23:37;5.60;;;4.83;;
2998;SDS011;1509;51.964;7.628;2023-04-15T14:26:02;6.77;;;5.70;;
2998;SDS011;1509;51.964;7.628;2023-04-15T14:28:28;6.80;;;5.20;;
2998;SDS011;1509;51.964;7.628;2023-04-15T14:30:54;7.90;;;6.40;;
2998;SDS011;1509;51.964;7.628;2023-04-15T14:33:19;9.37;;;6.10;;
2998;SDS011;1509;51.964;7.628;2023-04-15T14:35:45;9.30;;;6.77;;
2998;SDS011;1509;51.964;7.628;2023-04-15T14:38:11;8.27;;;6.27;;
2998;SDS011;1509;51.964;7.628;2023-04-15T14:40:36;7.53;;;6.20;;
2998;SDS011;1509;51.964;7.628;2023-04-15T14:43:02;7.47;;;6.27;;
2998;SDS011;1509;51.964;7.628;2023-04-15T14:45:28;7.27;;;6.10;;
2998;SDS011;1509;51.964;7.628;2023-04-15T14:47:54;7.63;;;6.13;;
2998;SDS011;1509;51.964;7.628;2023-04-15T14:50:20;7.70;;;6.20;;
2998;SDS011;1509;51.964;7.628;2023-04-15T14:52:46;7.90;;;5.87;;
2998;SDS011;1509;51.964;7.628;2023-04-15T14:55:12;8.57;;;6.27;;
2998;SDS011;1509;51.964;7.628;2023-04-15T14:57:41;6.80;;;6.00;;
2998;SDS011;1509;51.964;7.628;2023-04-15T15:00:07;7.40;;;5.87;;
2998;SDS011;1509;51.964;7.628;2023-04-15T15:02:35;7.93;;;6.13;;
2998;SDS011;1509;51.964;7.628;2023-04-15T15:05:03;6.50;;;5.10;;
2998;SDS011;1509;51.964;7.628;2023-04-15T15:07:29;7.73;;;5.70;;
2998;SDS011;1509;51.964;7.628;2023-04-15T15:09:54;9.13;;;5.93;;
2998;SDS011;1509;51.964;7.628;2023-04-15T15:12:20;7.37;;;6.27;;
2998;SDS011;1509;51.964;7.628;2023-04-15T15:14:49;8.77;;;6.60;;
2998;SDS011;1509;51.964;7.628;2023-04-15T15:17:15;8.50;;;6.30;;
2998;SDS011;1509;51.964;7.628;2023-04-15T15:19:40;7.77;;;5.97;;
2998;SDS011;1509;51.964;7.628;2023-04-15T15:22:06;8.83;;;6.00;;
2998;SDS011;1509;51.964;7.628;2023-04-15T15:24:31;9.33;;;6.70;;
2998;SDS011;1509;51.964;7.628;2023-04-15T15:26:57;10.10;;;6.20;;
2998;SDS011;1509;51.964;7.628;2023-04-15T15:29:23;6.57;;;5.67;;
2998;SDS011;1509;51.964;7.628;2023-04-15T15:31:50;7.63;;;6.20;;
2998;SDS011;1509;51.964;7.628;2023-04-15T15:34:16;6.10;;;5.13;;